createdAt,value
2019-03-13T00:01:23.974Z,100192.00
2019-03-13T00:03:53.617Z,100174.56
2019-03-13T00:06:23.151Z,100177.25
2019-03-13T00:08:52.685Z,100165.67
2019-03-13T00:11:22.567Z,100184.08
2019-03-13T00:13:52.149Z,100163.56
2019-03-13T00:16:21.798Z,100170.66
2019-03-13T00:18:51.369Z,100176.97
2019-03-13T00:21:21.036Z,100156.85
2019-03-13T00:23:50.662Z,100166.24
2019-03-13T00:26:20.204Z,100154.66
2019-03-13T00:28:50.106Z,100155.52
2019-03-13T00:31:20.146Z,100152.95
2019-03-13T00:33:49.770Z,100148.92
2019-03-13T00:36:19.323Z,100155.14
2019-03-13T00:38:48.859Z,100145.84
2019-03-13T00:41:18.761Z,100144.98
2019-03-13T00:43:48.306Z,100143.28
2019-03-13T00:46:18.142Z,100126.22
2019-03-13T00:48:47.705Z,100128.05
2019-03-13T00:51:17.237Z,100135.69
2019-03-13T00:53:46.788Z,100147.76
2019-03-13T00:56:16.674Z,100146.81
2019-03-13T00:58:46.223Z,100151.78
2019-03-13T01:01:37.797Z,100160.31
2019-03-13T01:04:29.294Z,100153.13
2019-03-13T01:07:02.018Z,100163.84
2019-03-13T01:09:31.912Z,100139.43
2019-03-13T01:12:01.830Z,100155.52
2019-03-13T01:14:31.481Z,100144.42
2019-03-13T01:17:00.993Z,100148.81
2019-03-13T01:19:30.997Z,100144.91
2019-03-13T01:22:00.592Z,100140.89
2019-03-13T01:24:30.215Z,100138.66
2019-03-13T01:27:00.064Z,100127.94
2019-03-13T01:29:29.695Z,100134.64
2019-03-13T01:32:27.410Z,100131.10
2019-03-13T01:35:14.876Z,100140.48
2019-03-13T01:37:44.497Z,100140.61
2019-03-13T01:40:14.393Z,100134.35
2019-03-13T01:42:43.926Z,100131.80
2019-03-13T01:45:13.456Z,100127.28
2019-03-13T01:47:43.010Z,100125.58
2019-03-13T01:50:12.577Z,100128.26
2019-03-13T01:52:42.114Z,100122.98
2019-03-13T01:55:12.064Z,100129.11
2019-03-13T01:57:41.597Z,100122.89
2019-03-13T02:00:11.809Z,100134.07
2019-03-13T02:02:41.371Z,100122.49
2019-03-13T02:05:10.915Z,100131.02
2019-03-13T02:07:40.487Z,100114.94
2019-03-13T02:10:10.162Z,100105.92
2019-03-13T02:12:39.716Z,100091.66
2019-03-13T02:15:28.177Z,100103.72
2019-03-13T02:17:58.064Z,100109.57
2019-03-13T02:20:27.615Z,100107.86
2019-03-13T02:22:57.497Z,100113.23
2019-03-13T02:25:27.161Z,100102.95
2019-03-13T02:27:56.714Z,100113.68
2019-03-13T02:30:27.509Z,100127.58
2019-03-13T02:32:57.037Z,100112.83
2019-03-13T02:35:26.583Z,100107.47
2019-03-13T02:37:56.470Z,100116.48
2019-03-13T02:40:26.306Z,100094.55
2019-03-13T02:42:55.879Z,100103.44
2019-03-13T02:45:25.719Z,100102.59
2019-03-13T02:47:55.259Z,100099.54
2019-03-13T02:50:24.793Z,100095.89
2019-03-13T02:52:54.358Z,100095.40
2019-03-13T02:55:24.274Z,100095.03
2019-03-13T02:57:53.823Z,100080.38
2019-03-13T03:00:37.528Z,100082.56
2019-03-13T03:03:08.525Z,100061.12
2019-03-13T03:05:39.464Z,100082.11
2019-03-13T03:08:09.015Z,100065.14
2019-03-13T03:10:57.871Z,100063.44
2019-03-13T03:13:27.451Z,100071.39
2019-03-13T03:15:56.989Z,100064.86
2019-03-13T03:18:26.543Z,100061.23
2019-03-13T03:20:56.103Z,100063.52
2019-03-13T03:23:25.678Z,100056.36
2019-03-13T03:25:55.241Z,100070.22
2019-03-13T03:28:24.854Z,100067.94
2019-03-13T03:30:54.436Z,100052.80
2019-03-13T03:33:23.985Z,100054.53
2019-03-13T03:35:53.514Z,100049.45
2019-03-13T03:38:23.166Z,100037.27
2019-03-13T03:40:52.738Z,100048.27
2019-03-13T03:43:38.851Z,100052.30
2019-03-13T03:45:53.517Z,100044.86
2019-03-13T03:48:23.105Z,100047.54
2019-03-13T03:50:52.732Z,100034.50
2019-03-13T03:53:22.290Z,100022.23
2019-03-13T03:55:51.918Z,100027.88
2019-03-13T03:58:21.532Z,100027.30
2019-03-13T04:00:51.147Z,100038.78
2019-03-13T04:03:20.761Z,100030.66
2019-03-13T04:05:50.293Z,100031.30
2019-03-13T04:08:19.909Z,100033.77
2019-03-13T04:10:49.481Z,100025.94
2019-03-13T04:13:19.363Z,100014.44
2019-03-13T04:15:49.392Z,100031.02
2019-03-13T04:18:19.160Z,100031.51
2019-03-13T04:20:48.698Z,100038.58
2019-03-13T04:23:18.243Z,100039.16
2019-03-13T04:25:47.784Z,100023.06
2019-03-13T04:28:17.349Z,100033.79
2019-03-13T04:30:47.275Z,100037.08
2019-03-13T04:33:16.841Z,100026.23
2019-03-13T04:35:46.404Z,100036.95
2019-03-13T04:38:15.958Z,100032.08
2019-03-13T04:40:45.529Z,100030.25
2019-03-13T04:43:15.401Z,100024.03
2019-03-13T04:45:45.316Z,100023.27
2019-03-13T04:48:14.866Z,100022.78
2019-03-13T04:50:44.451Z,100036.59
2019-03-13T04:53:14.008Z,100046.47
2019-03-13T04:55:43.899Z,100033.52
2019-03-13T04:58:13.452Z,100034.00
2019-03-13T05:00:43.093Z,100031.31
2019-03-13T05:03:12.967Z,100021.94
2019-03-13T05:05:46.901Z,100037.17
2019-03-13T05:08:53.163Z,100032.29
2019-03-13T05:11:22.777Z,100043.87
2019-03-13T05:13:52.332Z,100039.84
2019-03-13T05:16:21.870Z,100024.70
2019-03-13T05:18:51.402Z,100026.04
2019-03-13T05:21:20.950Z,100004.14
2019-03-13T05:23:50.521Z,100024.25
2019-03-13T05:26:20.063Z,100031.80
2019-03-13T05:28:49.597Z,100024.61
2019-03-13T05:31:19.131Z,100026.35
2019-03-13T05:33:49.341Z,100013.03
2019-03-13T05:36:18.996Z,100026.44
2019-03-13T05:39:07.729Z,100033.14
2019-03-13T05:41:55.450Z,100021.94
2019-03-13T05:44:25.038Z,100034.85
2019-03-13T05:46:54.835Z,100040.22
2019-03-13T05:49:24.439Z,100042.44
2019-03-13T05:51:53.932Z,100036.59
2019-03-13T05:54:23.523Z,100029.98
2019-03-13T05:56:53.157Z,100029.03
2019-03-13T05:59:24.525Z,100040.13
2019-03-13T06:01:54.253Z,100028.15
2019-03-13T06:04:23.805Z,100022.78
2019-03-13T06:06:53.548Z,100025.02
2019-03-13T06:09:25.629Z,100035.25
2019-03-13T06:11:54.736Z,100025.02
2019-03-13T06:14:24.284Z,100021.36
2019-03-13T06:16:54.231Z,100017.33
2019-03-13T06:19:23.777Z,100022.61
2019-03-13T06:21:55.232Z,100024.03
2019-03-13T06:24:24.831Z,100018.19
2019-03-13T06:26:54.386Z,100007.38
2019-03-13T06:29:23.946Z,100022.61
2019-03-13T06:31:53.837Z,100024.80
2019-03-13T06:34:23.371Z,100009.66
2019-03-13T06:36:52.981Z,100021.27
2019-03-13T06:39:22.555Z,100006.52
2019-03-13T06:41:52.374Z,100010.54
2019-03-13T06:44:21.907Z,100001.52
2019-03-13T06:46:51.500Z,100009.08
2019-03-13T06:49:21.080Z,100011.39
2019-03-13T06:51:50.622Z,99999.81
2019-03-13T06:54:20.201Z,100019.31
2019-03-13T06:56:49.756Z,100011.77
2019-03-13T06:59:24.672Z,99993.39
2019-03-13T07:02:00.477Z,99976.05
2019-03-13T07:04:55.114Z,100007.38
2019-03-13T07:07:42.109Z,100004.57
2019-03-13T07:10:29.508Z,99992.50
2019-03-13T07:13:18.038Z,99993.39
2019-03-13T07:15:52.684Z,99993.48
2019-03-13T07:18:39.829Z,99994.33
2019-03-13T07:21:34.206Z,99995.19
2019-03-13T07:24:22.884Z,99993.84
2019-03-13T07:27:00.441Z,100011.67
2019-03-13T07:29:57.921Z,100004.97
2019-03-13T07:33:04.597Z,100008.02
2019-03-13T07:35:51.530Z,99996.22
2019-03-13T07:38:39.041Z,99999.76
2019-03-13T07:41:22.762Z,100002.44
2019-03-13T07:44:03.168Z,100006.37
2019-03-13T07:46:57.990Z,100011.73
2019-03-13T07:49:45.185Z,100027.83
2019-03-13T07:52:51.828Z,100023.32
2019-03-13T07:55:32.517Z,100025.52
2019-03-13T07:58:21.043Z,100005.31
2019-03-13T08:00:58.152Z,100019.08
2019-03-13T08:03:45.589Z,100024.36
2019-03-13T08:06:32.175Z,100021.62
2019-03-13T08:09:32.791Z,100030.43
2019-03-13T08:12:40.143Z,100019.70
2019-03-13T08:15:39.632Z,100028.75
2019-03-13T08:18:43.267Z,100030.70
2019-03-13T08:21:30.826Z,100032.50
2019-03-13T08:24:16.640Z,100021.40
2019-03-13T08:27:05.261Z,100019.70
2019-03-13T08:29:52.508Z,100016.25
2019-03-13T08:32:42.808Z,100029.26
2019-03-13T08:35:43.618Z,100035.96
2019-03-13T08:38:24.406Z,100034.63
2019-03-13T08:41:07.364Z,100027.06
2019-03-13T08:43:48.718Z,100042.39
2019-03-13T08:46:39.944Z,100039.70
2019-03-13T08:49:46.639Z,100037.52
2019-03-13T08:52:31.219Z,100042.02
2019-03-13T08:55:23.014Z,100032.16
2019-03-13T08:58:11.575Z,100025.08
2019-03-13T09:01:03.083Z,100025.08
2019-03-13T09:03:43.137Z,100013.95
2019-03-13T09:06:31.684Z,100018.86
2019-03-13T09:09:09.590Z,100022.97
2019-03-13T09:11:56.669Z,100007.38
2019-03-13T09:14:33.999Z,100009.56
2019-03-13T09:17:15.787Z,100014.56
2019-03-13T09:20:04.059Z,100014.16
2019-03-13T09:22:43.856Z,100008.31
2019-03-13T09:25:24.952Z,100011.48
2019-03-13T09:28:15.441Z,100013.40
2019-03-13T09:31:03.426Z,100010.27
2019-03-13T09:33:54.964Z,99987.08
2019-03-13T09:36:34.447Z,99992.92
2019-03-13T09:39:21.092Z,99997.89
2019-03-13T09:42:00.279Z,100004.98
2019-03-13T09:44:38.713Z,99995.60
2019-03-13T09:47:16.293Z,99993.50
2019-03-13T09:50:01.580Z,100004.59
2019-03-13T09:52:52.944Z,99999.72
2019-03-13T09:55:44.364Z,99998.86
2019-03-13T09:58:36.038Z,99995.69
2019-03-13T10:01:23.880Z,99987.77
2019-03-13T10:03:59.664Z,99994.08
2019-03-13T10:06:41.539Z,99968.23
2019-03-13T10:09:27.854Z,99976.28
2019-03-13T10:12:31.558Z,99989.69
2019-03-13T10:15:12.995Z,99999.44
2019-03-13T10:17:58.428Z,99987.01
2019-03-13T10:20:36.192Z,99995.91
2019-03-13T10:23:36.632Z,99973.48
2019-03-13T10:26:25.181Z,99980.67
2019-03-13T10:29:03.589Z,99980.09
2019-03-13T10:31:53.964Z,99979.12
2019-03-13T10:34:54.937Z,99989.39
2019-03-13T10:37:42.133Z,99983.63
2019-03-13T10:40:21.208Z,99998.66
2019-03-13T10:43:15.698Z,99997.31
2019-03-13T10:46:12.952Z,99992.83
2019-03-13T10:49:00.243Z,100011.61
2019-03-13T10:51:56.502Z,100012.45
2019-03-13T10:54:46.661Z,100024.89
2019-03-13T10:57:28.040Z,100032.45
2019-03-13T11:00:14.947Z,100017.61
2019-03-13T11:03:03.505Z,100039.06
2019-03-13T11:05:44.394Z,100041.66
2019-03-13T11:08:31.704Z,100041.17
2019-03-13T11:11:08.883Z,100039.34
2019-03-13T11:13:43.033Z,100038.48
2019-03-13T11:16:48.665Z,100037.03
2019-03-13T11:19:33.737Z,100033.49
2019-03-13T11:22:25.234Z,100043.27
2019-03-13T11:25:16.792Z,100055.71
2019-03-13T11:28:01.472Z,100054.37
2019-03-13T11:30:56.096Z,100057.42
2019-03-13T11:33:43.557Z,100056.84
2019-03-13T11:36:20.023Z,100052.82
2019-03-13T11:39:06.345Z,100060.50
2019-03-13T11:41:53.279Z,100048.43
2019-03-13T11:44:41.836Z,100057.24
2019-03-13T11:47:45.528Z,100069.77
2019-03-13T11:50:38.244Z,100079.16
2019-03-13T11:53:13.400Z,100072.00
2019-03-13T11:56:02.864Z,100063.46
2019-03-13T11:58:50.163Z,100075.05
2019-03-13T12:01:46.027Z,100075.05
2019-03-13T12:04:32.688Z,100080.41
2019-03-13T12:07:33.294Z,100085.69
2019-03-13T12:10:12.055Z,100062.48
2019-03-13T12:13:00.641Z,100069.95
2019-03-13T12:15:42.411Z,100073.12
2019-03-13T12:18:25.243Z,100048.81
2019-03-13T12:21:13.800Z,100065.39
2019-03-13T12:24:07.837Z,100072.46
2019-03-13T12:26:58.942Z,100071.03
2019-03-13T12:29:45.991Z,100075.42
2019-03-13T12:32:41.306Z,100092.28
2019-03-13T12:35:33.124Z,100103.13
2019-03-13T12:38:22.043Z,100067.77
2019-03-13T12:41:16.941Z,100107.61
2019-03-13T12:44:00.759Z,100087.04
2019-03-13T12:46:36.287Z,100084.45
2019-03-13T12:49:23.570Z,100091.52
2019-03-13T12:52:10.888Z,100091.91
2019-03-13T12:55:05.378Z,100086.92
2019-03-13T12:57:44.221Z,100083.87
2019-03-13T13:00:23.209Z,100096.30
2019-03-13T13:03:11.115Z,100102.64
2019-03-13T13:06:05.540Z,100114.59
2019-03-13T13:08:45.569Z,100108.37
2019-03-13T13:11:32.972Z,100105.70
2019-03-13T13:14:22.572Z,100114.14
2019-03-13T13:17:19.934Z,100120.84
2019-03-13T13:19:49.751Z,100104.75
2019-03-13T13:22:19.328Z,100110.97
2019-03-13T13:24:48.908Z,100108.66
2019-03-13T13:27:18.459Z,100110.85
2019-03-13T13:29:48.722Z,100103.69
2019-03-13T13:32:18.348Z,100121.58
2019-03-13T13:34:48.197Z,100122.47
2019-03-13T13:37:18.034Z,100121.70
2019-03-13T13:39:47.592Z,100127.44
2019-03-13T13:42:17.154Z,100129.63
2019-03-13T13:44:47.067Z,100135.00
2019-03-13T13:47:16.610Z,100121.13
2019-03-13T13:49:58.839Z,100144.39
2019-03-13T13:52:17.848Z,100135.88
2019-03-13T13:54:47.393Z,100132.71
2019-03-13T13:57:16.984Z,100128.29
2019-03-13T13:59:46.538Z,100137.80
2019-03-13T14:02:16.114Z,100147.07
2019-03-13T14:04:45.700Z,100146.70
2019-03-13T14:07:15.260Z,100141.83
2019-03-13T14:09:44.874Z,100140.36
2019-03-13T14:12:14.741Z,100169.78
2019-03-13T14:14:44.296Z,100166.73
2019-03-13T14:17:13.851Z,100164.05
2019-03-13T14:19:43.425Z,100176.98
2019-03-13T14:22:12.999Z,100192.22
2019-03-13T14:24:42.543Z,100185.03
2019-03-13T14:27:14.836Z,100195.19
2019-03-13T14:29:43.424Z,100205.52
2019-03-13T14:32:12.980Z,100202.83
2019-03-13T14:34:42.539Z,100212.70
2019-03-13T14:37:12.126Z,100210.88
2019-03-13T14:39:41.664Z,100210.11
2019-03-13T14:42:11.203Z,100204.66
2019-03-13T14:44:40.782Z,100222.02
2019-03-13T14:47:10.412Z,100220.55
2019-03-13T14:49:39.949Z,100219.98
2019-03-13T14:52:09.515Z,100227.05
2019-03-13T14:54:39.055Z,100238.19
2019-03-13T14:57:08.602Z,100230.52
2019-03-13T14:59:38.173Z,100250.47
2019-03-13T15:02:07.708Z,100247.30
2019-03-13T15:04:37.251Z,100253.15
2019-03-13T15:07:24.949Z,100248.52
2019-03-13T15:09:54.570Z,100263.19
2019-03-13T15:12:24.127Z,100256.00
2019-03-13T15:14:53.680Z,100232.25
2019-03-13T15:17:23.265Z,100248.23
2019-03-13T15:19:52.817Z,100260.30
2019-03-13T15:22:22.361Z,100249.57
2019-03-13T15:24:51.906Z,100258.02
2019-03-13T15:27:21.769Z,100271.04
2019-03-13T15:29:51.382Z,100273.72
2019-03-13T15:32:21.203Z,100256.56
2019-03-13T15:34:50.759Z,100286.28
2019-03-13T15:37:20.621Z,100281.29
2019-03-13T15:39:50.178Z,100282.34
2019-03-13T15:42:20.150Z,100277.47
2019-03-13T15:44:49.701Z,100295.77
2019-03-13T15:47:19.577Z,100315.16
2019-03-13T15:49:49.523Z,100308.89
2019-03-13T15:52:19.065Z,100314.75
2019-03-13T15:54:48.642Z,100293.85
2019-03-13T15:57:18.618Z,100303.73
2019-03-13T15:59:48.543Z,100315.31
2019-03-13T16:02:18.098Z,100335.56
2019-03-13T16:04:48.065Z,100330.19
2019-03-13T16:07:17.628Z,100314.09
2019-03-13T16:09:47.244Z,100323.08
2019-03-13T16:12:16.807Z,100348.58
2019-03-13T16:14:46.405Z,100351.74
2019-03-13T16:17:16.027Z,100348.69
2019-03-13T16:19:46.278Z,100374.18
2019-03-13T16:22:17.515Z,100376.09
2019-03-13T16:24:47.088Z,100381.83
2019-03-13T16:27:16.973Z,100382.80
2019-03-13T16:29:46.536Z,100384.99
2019-03-13T16:32:18.265Z,100393.53
2019-03-13T16:34:47.811Z,100382.31
2019-03-13T16:37:17.373Z,100401.09
2019-03-13T16:39:46.910Z,100396.58
2019-03-13T16:42:16.455Z,100389.02
2019-03-13T16:44:46.074Z,100399.83
2019-03-13T16:47:15.630Z,100419.95
2019-03-13T16:49:45.585Z,100406.66
2019-03-13T16:52:15.127Z,100418.73
2019-03-13T16:54:44.691Z,100405.80
2019-03-13T16:57:14.246Z,100422.34
2019-03-13T16:59:43.810Z,100430.88
2019-03-13T17:02:13.356Z,100425.03
2019-03-13T17:04:43.217Z,100433.56
2019-03-13T17:07:12.769Z,100434.42
2019-03-13T17:09:42.321Z,100461.36
2019-03-13T17:12:30.320Z,100459.54
2019-03-13T17:14:59.877Z,100448.44
2019-03-13T17:17:29.458Z,100474.30
2019-03-13T17:19:59.040Z,100481.08
2019-03-13T17:22:28.601Z,100454.25
2019-03-13T17:24:58.180Z,100487.23
2019-03-13T17:27:27.730Z,100485.03
2019-03-13T17:29:57.298Z,100491.73
2019-03-13T17:32:26.844Z,100489.42
2019-03-13T17:34:56.677Z,100498.36
2019-03-13T17:37:26.225Z,100501.91
2019-03-13T17:39:55.806Z,100503.81
2019-03-13T17:42:25.371Z,100506.86
2019-03-13T17:44:54.922Z,100513.12
2019-03-13T17:47:24.459Z,100519.34
2019-03-13T17:49:54.054Z,100529.30
2019-03-13T17:52:23.646Z,100519.83
2019-03-13T17:54:53.466Z,100534.95
2019-03-13T17:57:23.265Z,100542.15
2019-03-13T17:59:52.817Z,100545.32
2019-03-13T18:02:22.977Z,100548.45
2019-03-13T18:04:52.524Z,100563.13
2019-03-13T18:07:22.087Z,100558.73
2019-03-13T18:09:51.639Z,100566.37
2019-03-13T18:12:21.572Z,100581.06
2019-03-13T18:14:51.143Z,100584.11
2019-03-13T18:17:20.695Z,100585.56
2019-03-13T18:19:50.406Z,100608.75
2019-03-13T18:22:20.210Z,100608.82
2019-03-13T18:24:49.762Z,100603.01
2019-03-13T18:27:19.309Z,100611.13
2019-03-13T18:29:48.889Z,100613.33
2019-03-13T18:32:18.478Z,100606.63
2019-03-13T18:34:48.017Z,100619.11
2019-03-13T18:37:17.657Z,100621.79
2019-03-13T18:39:47.241Z,100617.28
2019-03-13T18:42:16.806Z,100630.21
2019-03-13T18:44:46.461Z,100642.77
2019-03-13T18:47:16.040Z,100642.28
2019-03-13T18:49:45.641Z,100643.70
2019-03-13T18:52:15.242Z,100645.53
2019-03-13T18:54:44.892Z,100653.50
2019-03-13T18:57:14.441Z,100652.16
2019-03-13T18:59:44.089Z,100662.41
2019-03-13T19:02:13.641Z,100660.21
2019-03-13T19:05:01.617Z,100670.46
2019-03-13T19:07:31.161Z,100663.83
2019-03-13T19:10:00.741Z,100674.19
2019-03-13T19:12:30.364Z,100685.70
2019-03-13T19:15:00.367Z,100678.70
2019-03-13T19:17:30.034Z,100689.32
2019-03-13T19:19:59.600Z,100692.00
2019-03-13T19:22:29.517Z,100697.85
2019-03-13T19:24:59.158Z,100697.85
2019-03-13T19:27:28.735Z,100704.19
2019-03-13T19:29:58.316Z,100703.22
2019-03-13T19:32:27.893Z,100711.20
2019-03-13T19:34:57.450Z,100718.38
2019-03-13T19:37:28.008Z,100709.85
2019-03-13T19:39:57.682Z,100733.14
2019-03-13T19:42:27.269Z,100733.14
2019-03-13T19:44:57.108Z,100731.32
2019-03-13T19:47:26.724Z,100709.44
2019-03-13T19:49:56.292Z,100715.70
2019-03-13T19:52:26.112Z,100720.66
2019-03-13T19:54:57.507Z,100722.97
2019-03-13T19:57:27.070Z,100740.78
2019-03-13T19:59:56.659Z,100736.76
2019-03-13T20:02:26.243Z,100743.88
2019-03-13T20:04:56.081Z,100741.64
2019-03-13T20:07:25.641Z,100750.17
2019-03-13T20:09:55.224Z,100741.09
2019-03-13T20:12:24.797Z,100744.25
2019-03-13T20:14:54.397Z,100747.31
2019-03-13T20:17:23.951Z,100754.44
2019-03-13T20:19:53.514Z,100764.69
2019-03-13T20:22:23.283Z,100783.84
2019-03-13T20:24:52.977Z,100786.08
2019-03-13T20:27:22.563Z,100780.61
2019-03-13T20:29:52.119Z,100781.95
2019-03-13T20:32:21.697Z,100793.17
2019-03-13T20:34:51.304Z,100792.38
2019-03-13T20:37:20.856Z,100794.69
2019-03-13T20:39:50.439Z,100789.80
2019-03-13T20:42:20.026Z,100797.44
2019-03-13T20:44:50.206Z,100796.09
2019-03-13T20:47:19.753Z,100797.44
2019-03-13T20:49:49.349Z,100797.92
2019-03-13T20:52:18.921Z,100805.48
2019-03-13T20:54:48.511Z,100800.61
2019-03-13T20:57:18.374Z,100802.80
2019-03-13T20:59:47.974Z,100806.45
2019-03-13T21:02:17.545Z,100803.28
2019-03-13T21:04:47.115Z,100806.94
2019-03-13T21:07:16.695Z,100818.53
2019-03-13T21:09:46.330Z,100821.28
2019-03-13T21:12:15.963Z,100822.63
2019-03-13T21:14:45.541Z,100829.27
2019-03-13T21:17:15.441Z,100832.88
2019-03-13T21:19:45.032Z,100827.61
2019-03-13T21:22:14.574Z,100835.73
2019-03-13T21:24:44.228Z,100847.43
2019-03-13T21:27:13.884Z,100843.41
2019-03-13T21:29:43.432Z,100847.50
2019-03-13T21:32:13.322Z,100846.16
2019-03-13T21:34:42.925Z,100842.61
2019-03-13T21:37:12.824Z,100841.82
2019-03-13T21:39:42.442Z,100844.02
2019-03-13T21:42:12.338Z,100853.42
2019-03-13T21:44:41.886Z,100861.46
2019-03-13T21:47:11.449Z,100853.89
2019-03-13T21:49:41.025Z,100858.41
2019-03-13T21:52:10.592Z,100854.37
2019-03-13T21:54:40.170Z,100857.06
2019-03-13T21:57:10.106Z,100853.83
2019-03-13T21:59:39.691Z,100852.86
2019-03-13T22:02:09.234Z,100853.27
2019-03-13T22:04:39.037Z,100857.37
2019-03-13T22:07:08.633Z,100856.51
2019-03-13T22:09:38.174Z,100847.67
2019-03-13T22:12:08.518Z,100854.69
2019-03-13T22:14:38.723Z,100857.75
2019-03-13T22:17:08.410Z,100858.23
2019-03-13T22:19:37.953Z,100864.94
2019-03-13T22:22:07.811Z,100859.09
2019-03-13T22:24:37.377Z,100864.08
2019-03-13T22:27:06.937Z,100869.92
2019-03-13T22:29:36.534Z,100873.16
2019-03-13T22:32:06.077Z,100874.98
2019-03-13T22:34:35.621Z,100861.16
2019-03-13T22:37:05.473Z,100874.57
2019-03-13T22:39:35.024Z,100875.53
2019-03-13T22:42:04.575Z,100866.66
2019-03-13T22:44:34.460Z,100880.89
2019-03-13T22:47:04.512Z,100881.37
2019-03-13T22:49:34.331Z,100880.55
2019-03-13T22:52:03.909Z,100878.35
2019-03-13T22:54:33.472Z,100886.40
2019-03-13T22:57:03.042Z,100889.53
2019-03-13T22:59:32.650Z,100890.48
2019-03-13T23:02:02.207Z,100905.24
2019-03-13T23:04:31.752Z,100912.81
2019-03-13T23:07:01.328Z,100898.16
2019-03-13T23:09:31.208Z,100896.82
2019-03-13T23:12:00.791Z,100887.87
2019-03-13T23:14:30.390Z,100901.77
2019-03-13T23:16:59.948Z,100894.69
2019-03-13T23:19:29.640Z,100903.21
2019-03-13T23:21:59.189Z,100891.20
2019-03-13T23:24:28.719Z,100903.34
2019-03-13T23:27:16.880Z,100885.46
2019-03-13T23:29:47.070Z,100886.80
2019-03-13T23:32:16.635Z,100898.47
2019-03-13T23:34:46.574Z,100898.08
2019-03-13T23:37:16.097Z,100894.98
2019-03-13T23:39:45.690Z,100892.30
2019-03-13T23:42:15.246Z,100898.56
2019-03-13T23:45:02.925Z,100900.35
2019-03-13T23:47:51.030Z,100895.95
2019-03-13T23:50:20.611Z,100899.59
2019-03-13T23:52:50.147Z,100905.41
2019-03-13T23:55:19.685Z,100901.86
2019-03-13T23:57:49.229Z,100905.41
